Time;durP1;ratioP1;P1;durP2;ratioP2;P2;SDS_P1;SDS_P2;PMS_P1;PMS_P2;Temp;Humidity;BMP_temperature;BMP_pressure;BME280_temperature;BME280_humidity;BME280_pressure;Samples;Min_cycle;Max_cycle;Signal;HPM_P1;HPM_P2
2023/04/29 00:00:37;;;;;;;45.90;33.88;;;10.80;99.90;;;;;;5090953;28;20367;-56
2023/04/29 00:03:03;;;;;;;41.90;32.03;;;10.80;99.90;;;;;;5109012;28;20557;-55
2023/04/29 00:05:28;;;;;;;41.30;32.47;;;10.80;99.90;;;;;;5110708;28;20285;-57
2023/04/29 00:07:54;;;;;;;42.93;32.53;;;10.80;99.90;;;;;;5108273;28;20907;-54
2023/04/29 00:10:20;;;;;;;46.37;32.27;;;10.70;99.90;;;;;;5101061;28;20032;-57
2023/04/29 00:12:45;;;;;;;40.47;30.60;;;10.70;99.90;;;;;;5105425;28;20285;-55
2023/04/29 00:15:11;;;;;;;41.72;31.55;;;10.70;99.90;;;;;;5110748;28;20088;-57
2023/04/29 00:17:36;;;;;;;43.40;35.00;;;10.70;99.90;;;;;;5108441;28;20492;-57
2023/04/29 00:20:03;;;;;;;40.90;32.30;;;10.70;99.90;;;;;;5110010;28;20402;-55
2023/04/29 00:22:28;;;;;;;40.92;31.38;;;10.70;99.90;;;;;;5106125;28;20646;-55
2023/04/29 00:24:54;;;;;;;45.22;34.40;;;10.70;99.90;;;;;;5095763;28;20040;-56
2023/04/29 00:27:20;;;;;;;43.08;33.10;;;10.70;99.90;;;;;;5091344;28;20036;-57
2023/04/29 00:29:45;;;;;;;41.67;32.17;;;10.70;99.90;;;;;;5089134;28;20100;-57
2023/04/29 00:32:11;;;;;;;49.47;33.70;;;10.70;99.90;;;;;;5096098;28;20439;-57
2023/04/29 00:34:37;;;;;;;41.45;32.95;;;10.60;99.90;;;;;;5109993;28;20039;-58
2023/04/29 00:37:02;;;;;;;50.58;33.47;;;10.60;99.90;;;;;;5104633;28;20067;-57
2023/04/29 00:39:28;;;;;;;44.10;34.38;;;10.60;99.90;;;;;;5088611;28;20139;-57
2023/04/29 00:41:54;;;;;;;49.38;34.00;;;10.60;99.90;;;;;;5093328;28;20031;-56
2023/04/29 00:44:19;;;;;;;49.53;35.65;;;10.60;99.90;;;;;;5109876;28;20484;-60
2023/04/29 00:46:45;;;;;;;45.90;32.83;;;10.60;99.90;;;;;;5108538;28;20492;-57
2023/04/29 00:49:12;;;;;;;37.43;30.57;;;10.60;99.90;;;;;;5106792;28;20075;-56
2023/04/29 00:51:40;;;;;;;43.08;29.90;;;10.60;99.90;;;;;;5104584;28;20273;-58
2023/04/29 00:54:07;;;;;;;37.97;30.02;;;10.60;99.90;;;;;;5109163;28;20039;-55
2023/04/29 00:56:34;;;;;;;45.08;31.77;;;10.50;99.90;;;;;;5090574;28;20071;-59
2023/04/29 00:59:01;;;;;;;37.70;29.23;;;10.50;99.90;;;;;;5095922;28;20416;-57
2023/04/29 01:01:28;;;;;;;38.75;27.88;;;10.50;99.90;;;;;;5105852;28;20031;-57
2023/04/29 01:03:55;;;;;;;36.67;28.52;;;10.50;99.90;;;;;;5090913;28;20040;-56
2023/04/29 01:06:48;;;;;;;39.72;29.52;;;10.50;99.90;;;;;;5089933;28;20040;-56
2023/04/29 01:09:28;;;;;;;40.60;29.58;;;10.50;99.90;;;;;;5106708;28;20039;-57
2023/04/29 01:12:18;;;;;;;47.22;30.40;;;10.40;99.90;;;;;;5110028;28;20035;-55
2023/04/29 01:14:53;;;;;;;39.90;29.05;;;10.40;99.90;;;;;;5089818;28;20046;-56
2023/04/29 01:17:24;;;;;;;43.65;30.15;;;10.40;99.90;;;;;;5090412;28;20044;-57
2023/04/29 01:19:55;;;;;;;47.90;32.58;;;10.40;99.90;;;;;;5087471;28;20416;-55
2023/04/29 01:22:21;;;;;;;48.35;32.05;;;10.40;99.90;;;;;;5090374;28;20044;-58
2023/04/29 01:24:48;;;;;;;39.33;31.05;;;10.40;99.90;;;;;;5109575;28;20396;-57
2023/04/29 01:27:20;;;;;;;38.97;29.48;;;10.40;99.90;;;;;;5109274;28;20044;-57
2023/04/29 01:29:55;;;;;;;36.47;28.23;;;10.40;99.90;;;;;;5107550;28;20044;-56
2023/04/29 01:33:18;;;;;;;39.28;30.42;;;10.40;99.90;;;;;;5109980;28;20039;-57
2023/04/29 01:35:56;;;;;;;41.65;31.17;;;10.40;99.90;;;;;;5066472;28;20493;-56
2023/04/29 01:38:25;;;;;;;39.95;31.95;;;10.40;99.90;;;;;;5065710;28;20045;-56
2023/04/29 01:41:01;;;;;;;44.10;31.55;;;10.40;99.90;;;;;;5078990;28;20505;-56
2023/04/29 01:43:31;;;;;;;41.33;27.83;;;10.40;99.90;;;;;;5095883;28;20040;-56
2023/04/29 01:45:58;;;;;;;46.20;34.13;;;10.30;99.90;;;;;;5109309;28;20054;-54
2023/04/29 01:48:24;;;;;;;44.20;32.05;;;10.30;99.90;;;;;;5102323;28;20046;-57
2023/04/29 01:50:50;;;;;;;52.67;34.45;;;10.30;99.90;;;;;;5109242;28;20036;-57
2023/04/29 01:53:15;;;;;;;52.75;33.80;;;10.30;99.90;;;;;;5108054;28;20032;-58
2023/04/29 01:55:42;;;;;;;47.67;34.17;;;10.30;99.90;;;;;;5109454;28;20119;-56
2023/04/29 01:58:10;;;;;;;60.22;35.97;;;10.30;99.90;;;;;;5104439;28;20469;-55
2023/04/29 02:00:36;;;;;;;51.55;35.20;;;10.30;99.90;;;;;;5089276;28;20040;-57
2023/04/29 02:03:02;;;;;;;60.85;37.90;;;10.30;99.90;;;;;;5097224;28;20067;-58
2023/04/29 02:05:32;;;;;;;52.22;33.85;;;10.20;99.90;;;;;;5104360;28;20047;-56
2023/04/29 02:07:58;;;;;;;51.20;34.78;;;10.20;99.90;;;;;;5108453;28;20062;-57
2023/04/29 02:10:24;;;;;;;48.50;32.88;;;10.20;99.90;;;;;;5090800;28;20102;-57
2023/04/29 02:12:49;;;;;;;46.03;32.97;;;10.20;99.90;;;;;;5099853;28;20490;-57
2023/04/29 02:15:16;;;;;;;55.15;33.15;;;10.20;99.90;;;;;;5090405;28;20455;-57
2023/04/29 02:17:41;;;;;;;;;;;10.20;99.90;;;;;;5091553;28;20056;-55
2023/04/29 02:20:09;;;;;;;61.80;34.10;;;10.20;99.90;;;;;;5107554;28;19915;-54
2023/04/29 02:22:34;;;;;;;54.45;34.15;;;10.20;99.90;;;;;;5109092;28;20078;-58
2023/04/29 02:25:00;;;;;;;53.70;36.53;;;10.20;99.90;;;;;;5105268;28;20079;-56
2023/04/29 02:27:26;;;;;;;55.67;32.80;;;10.20;99.90;;;;;;5112137;28;20792;-56
2023/04/29 02:29:51;;;;;;;54.00;36.72;;;10.10;99.90;;;;;;5090852;28;20048;-56
2023/04/29 02:32:19;;;;;;;55.17;34.87;;;10.10;99.90;;;;;;5093124;28;20039;-58
2023/04/29 02:34:45;;;;;;;45.38;31.67;;;10.10;99.90;;;;;;5092028;28;20051;-58
2023/04/29 02:37:10;;;;;;;55.58;35.20;;;10.10;99.90;;;;;;5089852;28;20489;-56
2023/04/29 02:39:36;;;;;;;49.65;33.03;;;10.10;99.90;;;;;;5098288;28;20086;-57
2023/04/29 02:42:02;;;;;;;52.80;33.13;;;10.10;99.90;;;;;;5112072;28;20043;-54
2023/04/29 02:44:28;;;;;;;51.67;32.63;;;10.10;99.90;;;;;;5109220;28;20488;-56
2023/04/29 02:46:53;;;;;;;55.45;33.92;;;10.10;99.90;;;;;;5112626;28;20484;-57
2023/04/29 02:49:19;;;;;;;51.17;33.93;;;10.10;99.90;;;;;;5106342;28;20032;-57
2023/04/29 02:51:44;;;;;;;44.30;30.90;;;10.00;99.90;;;;;;5092223;28;20060;-55
2023/04/29 02:54:10;;;;;;;50.63;33.35;;;10.00;99.90;;;;;;5093053;28;20623;-57
2023/04/29 02:56:36;;;;;;;50.85;33.53;;;10.00;99.90;;;;;;5092299;28;20531;-57
2023/04/29 02:59:02;;;;;;;53.65;33.17;;;10.00;99.90;;;;;;5091260;28;20044;-57
2023/04/29 03:01:28;;;;;;;59.53;36.67;;;10.00;99.90;;;;;;5112496;28;20397;-56
2023/04/29 03:03:53;;;;;;;57.55;35.38;;;10.00;99.90;;;;;;5112336;28;20040;-57
2023/04/29 03:06:22;;;;;;;54.85;35.25;;;10.00;99.90;;;;;;5092575;28;20119;-56
2023/04/29 03:08:48;;;;;;;46.95;34.35;;;10.00;99.90;;;;;;5090383;28;20089;-56
2023/04/29 03:11:13;;;;;;;53.07;33.10;;;10.00;99.90;;;;;;5109499;28;20492;-57
2023/04/29 03:13:39;;;;;;;53.47;33.30;;;10.00;99.90;;;;;;5112691;28;20786;-57
2023/04/29 03:16:05;;;;;;;50.63;33.70;;;10.00;99.90;;;;;;5096562;28;20066;-57
2023/04/29 03:18:31;;;;;;;60.05;34.17;;;10.00;99.90;;;;;;5090796;28;20085;-57
2023/04/29 03:20:57;;;;;;;50.10;35.03;;;10.00;99.90;;;;;;5100450;28;20416;-57
2023/04/29 03:23:23;;;;;;;55.28;33.67;;;10.00;99.90;;;;;;5091129;28;20278;-54
2023/04/29 03:25:48;;;;;;;52.70;34.07;;;10.00;99.90;;;;;;5103574;28;20115;-58
2023/04/29 03:28:14;;;;;;;52.45;32.83;;;10.00;99.90;;;;;;5110146;28;20281;-57
2023/04/29 03:30:40;;;;;;;59.33;33.58;;;9.90;99.90;;;;;;5101064;28;20401;-57
2023/04/29 03:33:05;;;;;;;54.70;32.73;;;9.90;99.90;;;;;;5091372;28;20040;-54
2023/04/29 03:35:31;;;;;;;48.22;30.45;;;9.90;99.90;;;;;;5097844;28;20043;-55
2023/04/29 03:37:57;;;;;;;51.47;30.20;;;9.90;99.90;;;;;;5089576;28;20439;-57
2023/04/29 03:40:22;;;;;;;45.90;27.47;;;9.90;99.90;;;;;;5097520;28;20289;-58
2023/04/29 03:42:48;;;;;;;43.83;28.13;;;9.90;99.90;;;;;;5111784;28;20385;-57
2023/04/29 03:45:13;;;;;;;42.83;28.20;;;9.90;99.90;;;;;;5107503;28;20286;-56
2023/04/29 03:47:39;;;;;;;51.10;30.30;;;9.90;99.90;;;;;;5107551;28;20112;-56
2023/04/29 03:50:07;;;;;;;45.22;28.73;;;9.90;99.90;;;;;;5093349;28;20379;-58
2023/04/29 03:52:35;;;;;;;42.63;27.20;;;9.90;99.90;;;;;;5111016;28;20043;-55
2023/04/29 03:55:01;;;;;;;47.58;28.58;;;9.80;99.90;;;;;;5109038;28;20508;-56
2023/04/29 03:57:27;;;;;;;41.75;25.65;;;9.80;99.90;;;;;;5110436;28;20044;-57
2023/04/29 03:59:52;;;;;;;37.47;24.90;;;9.80;99.90;;;;;;5104527;28;20104;-54
2023/04/29 04:02:18;;;;;;;33.93;24.00;;;9.80;99.90;;;;;;5091097;28;20036;-58
2023/04/29 04:04:44;;;;;;;34.67;23.77;;;9.80;99.90;;;;;;5090498;28;20309;-55
2023/04/29 04:07:10;;;;;;;42.97;24.70;;;9.80;99.90;;;;;;5091286;28;20040;-58
2023/04/29 04:09:37;;;;;;;34.58;23.20;;;9.80;99.90;;;;;;5089426;28;20064;-57
2023/04/29 04:12:03;;;;;;;33.88;23.02;;;9.70;99.90;;;;;;5106137;28;20049;-56
2023/04/29 04:14:29;;;;;;;33.58;23.98;;;9.70;99.90;;;;;;5097021;28;20044;-57
2023/04/29 04:16:54;;;;;;;44.10;24.70;;;9.70;99.90;;;;;;5091700;28;20036;-58
2023/04/29 04:19:20;;;;;;;45.40;25.20;;;9.70;99.90;;;;;;5105637;28;20044;-55
2023/04/29 04:21:46;;;;;;;38.42;24.95;;;9.70;99.90;;;;;;5104582;28;20126;-56
2023/04/29 04:24:12;;;;;;;33.55;23.25;;;9.60;99.90;;;;;;5104429;28;20043;-55
2023/04/29 04:26:37;;;;;;;39.45;22.70;;;9.70;99.90;;;;;;5105432;28;20111;-57
2023/04/29 04:29:03;;;;;;;29.80;21.70;;;9.60;99.90;;;;;;5095768;28;20466;-57
2023/04/29 04:31:29;;;;;;;38.75;24.63;;;9.60;99.90;;;;;;5101863;28;20825;-57
2023/04/29 04:33:55;;;;;;;33.20;23.40;;;9.60;99.90;;;;;;5101909;28;20071;-57
2023/04/29 04:36:21;;;;;;;31.38;21.75;;;9.70;99.90;;;;;;5089796;28;20071;-55
2023/04/29 04:38:46;;;;;;;42.07;22.97;;;9.60;99.90;;;;;;5088662;28;20024;-58
2023/04/29 04:41:12;;;;;;;34.40;21.60;;;9.60;99.90;;;;;;5095587;28;20028;-57
2023/04/29 04:43:38;;;;;;;33.60;22.33;;;9.60;99.90;;;;;;5102091;28;20277;-55
2023/04/29 04:46:08;;;;;;;;;;;9.60;99.90;;;;;;5091653;28;20297;-57
2023/04/29 04:48:34;;;;;;;30.85;20.65;;;9.60;99.90;;;;;;5089209;28;20086;-55
2023/04/29 04:51:09;;;;;;;35.13;23.03;;;9.60;99.90;;;;;;5091667;28;20450;-57
2023/04/29 04:53:35;;;;;;;34.13;20.73;;;9.60;99.90;;;;;;5110687;28;20434;-58
2023/04/29 04:56:02;;;;;;;34.65;21.15;;;9.60;99.90;;;;;;5102222;28;20051;-58
2023/04/29 04:58:27;;;;;;;;;;;9.60;99.90;;;;;;5108253;28;20039;-57
2023/04/29 05:00:53;;;;;;;31.17;20.27;;;9.60;99.90;;;;;;5109663;28;20277;-57
2023/04/29 05:03:19;;;;;;;39.88;22.45;;;9.60;99.90;;;;;;5088464;28;20123;-56
2023/04/29 05:05:44;;;;;;;32.07;19.20;;;9.60;99.90;;;;;;5090002;28;20485;-58
2023/04/29 05:08:10;;;;;;;32.90;21.17;;;9.60;99.90;;;;;;5089895;28;20117;-57
2023/04/29 05:10:36;;;;;;;31.43;20.57;;;9.60;99.90;;;;;;5089665;28;20305;-58
2023/04/29 05:13:02;;;;;;;35.72;22.35;;;9.60;99.90;;;;;;5106031;28;20084;-56
2023/04/29 05:15:27;;;;;;;34.38;20.58;;;9.60;99.90;;;;;;5110030;28;20160;-58
2023/04/29 05:17:53;;;;;;;35.80;22.05;;;9.60;99.90;;;;;;5105630;28;20113;-56
2023/04/29 05:20:20;;;;;;;30.58;21.15;;;9.60;99.90;;;;;;5109521;28;20043;-57
2023/04/29 05:22:45;;;;;;;28.77;19.63;;;9.60;99.90;;;;;;5096828;28;20097;-57
2023/04/29 05:25:11;;;;;;;30.90;20.77;;;9.60;99.90;;;;;;5105285;28;20420;-55
2023/04/29 05:27:37;;;;;;;34.57;21.10;;;9.60;99.90;;;;;;5104136;28;20730;-58
2023/04/29 05:30:03;;;;;;;41.47;21.45;;;9.60;99.90;;;;;;5089347;28;20047;-57
2023/04/29 05:32:28;;;;;;;28.58;19.85;;;9.60;99.90;;;;;;5098497;28;20028;-55
2023/04/29 05:34:54;;;;;;;32.73;19.93;;;9.60;99.90;;;;;;5092840;28;20043;-58
2023/04/29 05:37:19;;;;;;;29.83;20.70;;;9.60;99.90;;;;;;5090463;28;20036;-56
2023/04/29 05:39:45;;;;;;;29.30;19.17;;;9.60;99.90;;;;;;5088492;28;20562;-57
2023/04/29 05:42:10;;;;;;;29.07;19.73;;;9.60;99.90;;;;;;5094848;28;20066;-56
2023/04/29 05:44:36;;;;;;;30.13;19.17;;;9.60;99.90;;;;;;5095731;28;20347;-57
2023/04/29 05:47:02;;;;;;;26.07;17.53;;;9.60;99.90;;;;;;5092527;28;20495;-54
2023/04/29 05:49:27;;;;;;;32.57;20.80;;;9.60;99.90;;;;;;5107762;28;20801;-56
2023/04/29 05:51:53;;;;;;;28.73;18.10;;;9.60;99.90;;;;;;5110025;28;20035;-57
2023/04/29 05:54:18;;;;;;;24.47;17.40;;;9.60;99.90;;;;;;5093345;28;20067;-54
2023/04/29 05:56:44;;;;;;;29.33;17.88;;;9.60;99.90;;;;;;5092988;28;20036;-57
2023/04/29 05:59:10;;;;;;;30.07;16.83;;;9.70;99.90;;;;;;5099857;28;20078;-55
2023/04/29 06:01:35;;;;;;;25.77;16.73;;;9.70;99.90;;;;;;5092773;28;20322;-58
2023/04/29 06:04:01;;;;;;;38.17;19.20;;;9.70;99.90;;;;;;5111281;28;20040;-57
2023/04/29 06:06:27;;;;;;;26.73;17.57;;;9.70;99.90;;;;;;5113335;28;20044;-57
2023/04/29 06:08:53;;;;;;;19.60;15.57;;;9.70;99.90;;;;;;5110320;28;20050;-55
2023/04/29 06:11:18;;;;;;;24.50;15.67;;;9.70;99.90;;;;;;5099971;28;20040;-58
2023/04/29 06:13:44;;;;;;;24.87;15.40;;;9.70;99.90;;;;;;5107719;28;20292;-57
2023/04/29 06:16:11;;;;;;;27.83;15.95;;;9.70;99.90;;;;;;5094647;28;20040;-57
2023/04/29 06:18:37;;;;;;;;;;;9.70;99.90;;;;;;5103818;28;20044;-57
2023/04/29 06:21:02;;;;;;;25.65;15.95;;;9.70;99.90;;;;;;5110127;28;19986;-55
2023/04/29 06:23:28;;;;;;;21.20;15.20;;;9.80;99.90;;;;;;5100965;28;20040;-55
2023/04/29 06:25:54;;;;;;;26.57;15.07;;;9.80;99.90;;;;;;5097696;28;20485;-58
2023/04/29 06:28:19;;;;;;;27.70;15.98;;;9.80;99.90;;;;;;5091723;28;20057;-56
2023/04/29 06:30:45;;;;;;;20.40;14.57;;;9.80;99.90;;;;;;5099656;28;20442;-57
2023/04/29 06:33:11;;;;;;;24.42;14.88;;;9.80;99.90;;;;;;5097928;28;20039;-58
2023/04/29 06:35:40;;;;;;;21.00;13.20;;;9.80;99.90;;;;;;5099885;28;20044;-52
2023/04/29 06:38:07;;;;;;;21.27;13.77;;;9.90;99.90;;;;;;5098936;28;20044;-56
2023/04/29 06:40:33;;;;;;;24.13;16.33;;;9.90;99.90;;;;;;5109918;28;20089;-56
2023/04/29 06:42:59;;;;;;;29.00;16.00;;;10.00;99.90;;;;;;5107778;27;20477;-58
2023/04/29 06:45:24;;;;;;;25.30;16.02;;;10.00;99.90;;;;;;5100789;28;20088;-58
2023/04/29 06:47:50;;;;;;;23.92;13.32;;;10.00;99.90;;;;;;5108370;28;20035;-56
2023/04/29 06:50:15;;;;;;;22.93;15.20;;;10.00;99.90;;;;;;5100081;28;20031;-58
2023/04/29 06:52:41;;;;;;;25.65;15.63;;;10.10;99.90;;;;;;5111692;28;20046;-56
2023/04/29 06:55:07;;;;;;;22.83;16.00;;;10.10;99.90;;;;;;5102406;28;20038;-55
2023/04/29 06:57:33;;;;;;;25.35;16.15;;;10.10;99.90;;;;;;5101805;27;20092;-58
2023/04/29 06:59:58;;;;;;;30.13;17.57;;;10.10;99.90;;;;;;5110161;27;20036;-58
2023/04/29 07:02:24;;;;;;;34.70;18.13;;;10.10;99.90;;;;;;5111625;28;20269;-58
2023/04/29 07:04:51;;;;;;;26.88;17.55;;;10.10;99.90;;;;;;5111719;28;20113;-55
2023/04/29 07:07:16;;;;;;;21.15;16.58;;;10.20;99.90;;;;;;5096279;28;20048;-58
2023/04/29 07:09:42;;;;;;;28.77;17.40;;;10.20;99.90;;;;;;5109130;28;20507;-58
2023/04/29 07:12:08;;;;;;;22.77;15.43;;;10.20;99.90;;;;;;5111304;28;20031;-56
2023/04/29 07:14:33;;;;;;;25.73;15.23;;;10.20;99.90;;;;;;5106213;28;20036;-59
2023/04/29 07:16:59;;;;;;;27.67;16.17;;;10.30;99.90;;;;;;5111845;28;20777;-57
2023/04/29 07:19:24;;;;;;;26.97;15.93;;;10.30;99.90;;;;;;5104832;28;20039;-58
2023/04/29 07:21:50;;;;;;;28.58;16.48;;;10.30;99.90;;;;;;5095303;28;20361;-57
2023/04/29 07:24:16;;;;;;;25.33;15.63;;;10.40;99.90;;;;;;5107369;28;20316;-57
2023/04/29 07:26:43;;;;;;;26.13;16.60;;;10.40;99.90;;;;;;5111435;28;20114;-58
2023/04/29 07:29:09;;;;;;;21.58;15.00;;;10.50;99.90;;;;;;5107995;28;20050;-58
2023/04/29 07:31:35;;;;;;;24.67;13.90;;;10.60;99.90;;;;;;5112127;28;20031;-58
2023/04/29 07:34:01;;;;;;;22.52;14.70;;;10.60;99.90;;;;;;5105288;28;20063;-58
2023/04/29 07:36:27;;;;;;;22.90;15.05;;;10.60;99.90;;;;;;5090657;28;20485;-57
2023/04/29 07:38:53;;;;;;;21.05;14.23;;;10.70;99.90;;;;;;5094089;28;20043;-56
2023/04/29 07:41:19;;;;;;;24.98;14.43;;;10.80;99.90;;;;;;5104110;28;20043;-58
2023/04/29 07:43:44;;;;;;;18.90;14.48;;;10.80;99.90;;;;;;5100746;28;20023;-59
2023/04/29 07:46:10;;;;;;;23.77;14.02;;;10.90;99.90;;;;;;5111106;28;20125;-58
2023/04/29 07:48:38;;;;;;;19.30;13.15;;;11.00;99.90;;;;;;5097848;28;20043;-58
2023/04/29 07:51:04;;;;;;;15.38;11.95;;;11.00;99.90;;;;;;5106746;28;20341;-59
2023/04/29 07:53:30;;;;;;;21.20;13.95;;;11.10;99.90;;;;;;5089257;28;20036;-58
2023/04/29 07:55:56;;;;;;;25.13;13.20;;;11.20;99.90;;;;;;5099979;28;20032;-58
2023/04/29 07:58:21;;;;;;;17.83;12.25;;;11.20;99.90;;;;;;5090672;27;20828;-58
2023/04/29 08:00:47;;;;;;;18.50;12.20;;;11.30;99.90;;;;;;5100107;28;20079;-59
2023/04/29 08:03:13;;;;;;;15.68;11.07;;;11.40;99.90;;;;;;5109957;28;20529;-59
2023/04/29 08:05:38;;;;;;;23.85;11.77;;;11.40;99.90;;;;;;5099446;28;20042;-57
2023/04/29 08:08:04;;;;;;;16.97;11.47;;;11.50;99.90;;;;;;5099469;28;20075;-57
2023/04/29 08:10:30;;;;;;;17.83;12.18;;;11.60;99.90;;;;;;5098486;28;20122;-59
2023/04/29 08:12:56;;;;;;;18.02;12.70;;;11.60;99.90;;;;;;5108209;28;20110;-59
2023/04/29 08:15:22;;;;;;;19.08;11.88;;;11.70;99.90;;;;;;5098562;28;20492;-57
2023/04/29 08:17:48;;;;;;;18.63;11.00;;;11.80;99.90;;;;;;5095831;28;20039;-58
2023/04/29 08:20:14;;;;;;;17.23;10.63;;;11.90;99.90;;;;;;5104019;28;20126;-58
2023/04/29 08:22:40;;;;;;;20.63;11.05;;;12.00;99.90;;;;;;5100165;28;20035;-57
2023/04/29 08:25:06;;;;;;;15.27;10.30;;;12.20;99.90;;;;;;5102989;28;20043;-56
2023/04/29 08:27:31;;;;;;;16.02;10.48;;;12.40;99.90;;;;;;5090387;28;20036;-57
2023/04/29 08:29:57;;;;;;;13.57;9.57;;;12.50;99.90;;;;;;5095463;28;20509;-56
2023/04/29 08:32:23;;;;;;;17.70;9.48;;;12.70;99.90;;;;;;5092488;28;20028;-57
2023/04/29 08:34:49;;;;;;;13.40;8.45;;;12.80;99.90;;;;;;5110164;28;20096;-58
2023/04/29 08:37:15;;;;;;;15.55;10.10;;;13.00;99.90;;;;;;5110651;28;20036;-57
2023/04/29 08:39:45;;;;;;;14.93;9.30;;;13.20;99.90;;;;;;5088698;28;20054;-56
2023/04/29 08:42:11;;;;;;;13.68;9.07;;;13.30;99.90;;;;;;5090695;28;20056;-57
2023/04/29 08:44:39;;;;;;;10.15;8.18;;;13.50;99.90;;;;;;5091313;28;20044;-57
2023/04/29 08:47:05;;;;;;;9.60;8.52;;;13.60;99.90;;;;;;5094624;28;20039;-56
2023/04/29 08:49:32;;;;;;;;;;;13.70;99.90;;;;;;5104772;28;20031;-57
2023/04/29 08:51:58;;;;;;;17.05;8.95;;;13.90;99.90;;;;;;5104888;28;20329;-55
2023/04/29 08:54:24;;;;;;;15.85;9.10;;;14.00;99.90;;;;;;5104241;28;20044;-56
2023/04/29 08:56:51;;;;;;;13.27;7.97;;;14.10;99.90;;;;;;5093928;28;20039;-57
2023/04/29 08:59:17;;;;;;;14.85;8.23;;;14.20;99.90;;;;;;5090480;28;20493;-55
2023/04/29 09:01:43;;;;;;;;;;;14.30;99.90;;;;;;5092139;28;20035;-55
2023/04/29 09:04:27;;;;;;;14.55;8.45;;;14.30;99.90;;;;;;5098457;28;19931;-54
2023/04/29 09:06:56;;;;;;;13.70;7.90;;;14.30;99.90;;;;;;5100543;28;20072;-57
2023/04/29 09:09:23;;;;;;;16.67;8.38;;;14.30;99.90;;;;;;5107734;28;20086;-57
2023/04/29 09:11:49;;;;;;;10.57;8.07;;;14.30;99.90;;;;;;5107596;28;20039;-58
2023/04/29 09:14:15;;;;;;;11.00;7.35;;;14.40;99.90;;;;;;5099710;28;20413;-57
2023/04/29 09:16:41;;;;;;;10.75;8.40;;;14.40;99.90;;;;;;5103293;28;20112;-57
2023/04/29 09:19:06;;;;;;;10.73;7.57;;;14.50;99.90;;;;;;5088377;28;20039;-59
2023/04/29 09:21:32;;;;;;;13.38;7.65;;;14.60;99.90;;;;;;5090195;28;20093;-59
2023/04/29 09:24:00;;;;;;;15.82;8.13;;;14.60;99.90;;;;;;5090457;28;20044;-59
2023/04/29 09:26:32;;;;;;;13.68;8.07;;;14.60;99.90;;;;;;5102709;28;20505;-59
2023/04/29 09:29:08;;;;;;;8.43;6.45;;;14.70;99.90;;;;;;5111634;28;20044;-59
2023/04/29 09:31:35;;;;;;;11.45;7.20;;;14.80;99.90;;;;;;5100664;28;20382;-59
2023/04/29 09:34:01;;;;;;;13.02;7.70;;;15.00;99.90;;;;;;5110645;28;20709;-59
2023/04/29 09:36:40;;;;;;;10.52;7.93;;;15.10;99.90;;;;;;5111720;28;20043;-58
2023/04/29 09:39:10;;;;;;;12.50;7.43;;;15.20;99.90;;;;;;5111543;28;20036;-60
2023/04/29 09:41:38;;;;;;;9.95;6.85;;;15.30;99.90;;;;;;5100579;28;20097;-59
2023/04/29 09:44:05;;;;;;;10.60;7.43;;;15.30;99.90;;;;;;5094523;28;20089;-59
2023/04/29 09:46:32;;;;;;;13.27;6.35;;;15.30;99.90;;;;;;5103793;28;20043;-60
2023/04/29 09:48:58;;;;;;;11.73;7.05;;;15.20;99.90;;;;;;5107539;28;20237;-58
2023/04/29 09:51:24;;;;;;;12.98;6.80;;;15.20;99.90;;;;;;5109672;28;20115;-60
2023/04/29 09:53:49;;;;;;;10.25;6.80;;;15.20;99.90;;;;;;5102235;28;20453;-58
2023/04/29 09:56:15;;;;;;;11.82;6.10;;;15.10;99.90;;;;;;5093677;28;20036;-58
2023/04/29 09:58:41;;;;;;;9.90;7.22;;;15.20;99.90;;;;;;5103709;28;20454;-59
2023/04/29 10:01:07;;;;;;;9.30;4.95;;;15.30;99.90;;;;;;5106669;28;20064;-60
2023/04/29 10:03:33;;;;;;;10.77;5.03;;;15.40;99.90;;;;;;5104139;28;20093;-59
2023/04/29 10:06:01;;;;;;;6.43;4.95;;;15.50;99.90;;;;;;5111756;28;20386;-60
2023/04/29 10:08:28;;;;;;;13.77;6.43;;;15.60;99.90;;;;;;5101263;28;20081;-59
2023/04/29 10:10:58;;;;;;;7.60;6.00;;;15.70;99.90;;;;;;5111957;28;20051;-56
2023/04/29 10:13:25;;;;;;;6.45;5.10;;;15.70;99.90;;;;;;5110200;28;20065;-60
2023/04/29 10:16:08;;;;;;;8.90;6.13;;;15.80;99.90;;;;;;5096446;28;20106;-59
2023/04/29 10:18:38;;;;;;;17.95;6.22;;;15.90;99.90;;;;;;5100669;28;20038;-60
2023/04/29 10:21:08;;;;;;;7.28;5.20;;;16.10;99.90;;;;;;5112449;28;20052;-59
2023/04/29 10:23:35;;;;;;;6.70;5.22;;;16.20;99.90;;;;;;5111785;28;20126;-62
2023/04/29 10:26:02;;;;;;;6.18;5.45;;;16.20;99.90;;;;;;5111596;28;20408;-57
2023/04/29 10:28:31;;;;;;;10.88;5.70;;;16.20;99.90;;;;;;5097375;28;20082;-56
2023/04/29 10:31:01;;;;;;;11.80;6.03;;;16.10;99.90;;;;;;5092110;28;20493;-59
2023/04/29 10:33:31;;;;;;;7.95;4.82;;;16.10;99.90;;;;;;5106871;28;20032;-59
2023/04/29 10:35:59;;;;;;;12.65;5.57;;;16.00;99.90;;;;;;5111798;28;20508;-60
2023/04/29 10:38:32;;;;;;;10.07;5.57;;;16.10;99.90;;;;;;5094375;28;20036;-60
2023/04/29 10:41:03;;;;;;;8.77;6.25;;;16.20;99.90;;;;;;5102058;28;20036;-58
2023/04/29 10:43:30;;;;;;;8.43;5.38;;;16.30;99.90;;;;;;5106489;28;20108;-59
2023/04/29 10:46:25;;;;;;;5.90;4.90;;;16.20;99.90;;;;;;5101265;28;20077;-60
2023/04/29 10:49:02;;;;;;;5.72;5.20;;;16.10;99.90;;;;;;5060681;28;20045;-59
2023/04/29 10:51:30;;;;;;;;;;;16.10;99.90;;;;;;5056759;28;20041;-60
2023/04/29 10:54:00;;;;;;;4.55;4.18;;;16.20;99.90;;;;;;5054589;28;19917;-61
2023/04/29 10:56:49;;;;;;;6.25;3.65;;;16.40;99.90;;;;;;5056045;28;20101;-60
2023/04/29 10:59:27;;;;;;;4.97;4.50;;;16.70;99.90;;;;;;5056240;28;20422;-61
2023/04/29 11:01:53;;;;;;;7.65;5.57;;;16.80;99.90;;;;;;5058687;28;20040;-60
2023/04/29 11:04:21;;;;;;;6.10;4.53;;;16.90;99.90;;;;;;5062817;28;20051;-59
2023/04/29 11:06:51;;;;;;;6.30;5.05;;;16.90;99.90;;;;;;5061035;28;20409;-60
2023/04/29 11:09:23;;;;;;;5.43;4.85;;;17.00;99.90;;;;;;5053592;28;20538;-60
2023/04/29 11:11:52;;;;;;;6.00;4.35;;;17.10;99.90;;;;;;5050133;28;20090;-60
2023/04/29 11:14:28;;;;;;;8.23;5.13;;;17.10;99.90;;;;;;5056308;28;20040;-59
2023/04/29 11:16:58;;;;;;;4.60;4.13;;;17.00;99.90;;;;;;5059038;28;20356;-60
2023/04/29 11:19:30;;;;;;;11.02;3.83;;;16.90;99.90;;;;;;5051389;28;20514;-62
2023/04/29 11:22:16;;;;;;;8.48;4.60;;;17.00;99.90;;;;;;5059451;28;20494;-60
2023/04/29 11:24:52;;;;;;;7.37;4.63;;;17.20;99.90;;;;;;5071031;28;20160;-60
2023/04/29 11:27:19;;;;;;;8.07;4.50;;;17.20;99.90;;;;;;5095917;28;20731;-59
2023/04/29 11:29:46;;;;;;;8.30;5.00;;;17.20;99.90;;;;;;5096232;28;20032;-60
2023/04/29 11:32:12;;;;;;;8.73;4.90;;;17.20;99.90;;;;;;5093553;28;20036;-59
2023/04/29 11:34:37;;;;;;;8.88;4.65;;;17.00;99.70;;;;;;5098467;28;20036;-61
2023/04/29 11:37:04;;;;;;;10.63;4.70;;;17.00;99.90;;;;;;5094026;28;20127;-60
2023/04/29 11:39:34;;;;;;;8.05;4.63;;;17.00;99.70;;;;;;5094465;28;20044;-59
2023/04/29 11:42:04;;;;;;;15.32;3.58;;;17.20;99.90;;;;;;5096613;28;20039;-60
2023/04/29 11:44:30;;;;;;;7.82;3.40;;;17.40;99.90;;;;;;5093976;28;20087;-60
2023/04/29 11:47:28;;;;;;;9.00;3.92;;;17.60;99.70;;;;;;5095376;28;20078;-61
2023/04/29 11:50:02;;;;;;;8.60;4.45;;;17.70;98.40;;;;;;5095800;28;20422;-61
2023/04/29 11:52:28;;;;;;;8.68;5.55;;;17.60;99.00;;;;;;5098532;28;20089;-60
2023/04/29 11:54:53;;;;;;;8.18;5.82;;;17.60;99.40;;;;;;5096945;28;20488;-60
2023/04/29 11:57:19;;;;;;;8.20;5.95;;;17.40;99.30;;;;;;5098813;28;20080;-60
2023/04/29 11:59:46;;;;;;;9.02;4.10;;;17.40;98.30;;;;;;5097847;28;20040;-60
2023/04/29 12:02:12;;;;;;;12.52;4.18;;;17.40;98.80;;;;;;5098542;28;20043;-60
2023/04/29 12:04:47;;;;;;;8.48;3.03;;;17.40;99.30;;;;;;5099953;28;20538;-61
2023/04/29 12:07:16;;;;;;;5.28;3.67;;;17.50;98.30;;;;;;5095335;28;20400;-61
2023/04/29 12:09:46;;;;;;;5.35;3.10;;;17.60;98.20;;;;;;5097945;28;20085;-60
2023/04/29 12:12:13;;;;;;;9.82;3.67;;;17.70;97.50;;;;;;5096383;28;20097;-61
2023/04/29 12:14:40;;;;;;;5.70;2.95;;;17.70;98.00;;;;;;5097746;28;20109;-61
2023/04/29 12:17:06;;;;;;;6.03;4.13;;;17.80;97.70;;;;;;5097996;28;20077;-62
2023/04/29 12:19:31;;;;;;;;;;;18.00;97.90;;;;;;5095948;28;20479;-60
2023/04/29 12:22:02;;;;;;;6.22;2.90;;;18.10;97.00;;;;;;5095626;28;20006;-61
2023/04/29 12:24:27;;;;;;;4.88;2.95;;;18.10;96.80;;;;;;5096003;28;20119;-61
2023/04/29 12:26:58;;;;;;;8.20;4.00;;;18.20;96.80;;;;;;5096058;28;20137;-61
2023/04/29 12:29:25;;;;;;;4.22;3.22;;;18.30;97.00;;;;;;5094024;28;20039;-61
2023/04/29 12:31:51;;;;;;;8.00;3.42;;;18.30;96.80;;;;;;5097350;28;20041;-61
2023/04/29 12:34:23;;;;;;;3.90;3.30;;;18.40;96.20;;;;;;5092046;28;20087;-60
2023/04/29 12:36:49;;;;;;;7.15;3.83;;;18.30;95.80;;;;;;5097415;28;20047;-61